createdAt,value
2017-10-02T00:01:01.864Z,49.99
2017-10-02T00:03:04.325Z,50.02
2017-10-02T00:05:06.768Z,50.01
2017-10-02T00:07:09.208Z,50.04
2017-10-02T00:09:11.760Z,50.06
2017-10-02T00:11:14.209Z,50.02
2017-10-02T00:13:16.644Z,50.16
2017-10-02T00:15:19.113Z,50.20
2017-10-02T00:17:21.659Z,50.15
2017-10-02T00:19:24.098Z,50.07
2017-10-02T00:21:26.561Z,50.07
2017-10-02T00:23:29.064Z,50.09
2017-10-02T00:25:31.506Z,50.26
2017-10-02T00:27:33.978Z,50.32
2017-10-02T00:29:36.488Z,50.29
2017-10-02T00:31:38.925Z,50.21
2017-10-02T00:33:41.481Z,50.23
2017-10-02T00:35:43.920Z,50.18
2017-10-02T00:37:46.348Z,50.07
2017-10-02T00:39:48.824Z,50.03
2017-10-02T00:41:51.268Z,50.12
2017-10-02T00:43:53.764Z,50.10
2017-10-02T00:45:56.229Z,50.06
2017-10-02T00:47:58.675Z,50.21
2017-10-02T00:50:01.119Z,50.36
2017-10-02T00:52:03.651Z,50.36
2017-10-02T00:54:06.099Z,50.12
2017-10-02T00:56:08.537Z,50.16
2017-10-02T00:58:11.000Z,50.20
2017-10-02T01:00:13.436Z,50.05
2017-10-02T01:02:15.876Z,50.15
2017-10-02T01:04:18.339Z,50.10
2017-10-02T01:06:20.831Z,50.08
2017-10-02T01:08:23.281Z,50.03
2017-10-02T01:10:26.236Z,49.96
2017-10-02T01:12:28.684Z,50.04
2017-10-02T01:14:31.120Z,50.14
2017-10-02T01:16:33.604Z,50.28
2017-10-02T01:18:36.036Z,50.45
2017-10-02T01:20:38.548Z,50.25
2017-10-02T01:22:41.015Z,50.13
2017-10-02T01:24:43.453Z,49.96
2017-10-02T01:26:45.893Z,50.16
2017-10-02T01:28:48.378Z,50.10
2017-10-02T01:30:50.892Z,49.95
2017-10-02T01:32:53.334Z,50.22
2017-10-02T01:34:55.807Z,50.19
2017-10-02T01:36:58.261Z,50.18
2017-10-02T01:39:00.701Z,50.24
2017-10-02T01:41:03.167Z,50.32
2017-10-02T01:43:05.674Z,50.21
2017-10-02T01:45:08.125Z,50.23
2017-10-02T01:47:10.588Z,50.25
2017-10-02T01:49:13.121Z,50.10
2017-10-02T01:51:15.562Z,50.15
2017-10-02T01:53:18.027Z,50.13
2017-10-02T01:55:20.537Z,50.45
2017-10-02T01:57:23.006Z,50.46
2017-10-02T01:59:25.472Z,50.36
2017-10-02T02:01:27.915Z,50.26
2017-10-02T02:03:30.339Z,50.47
2017-10-02T02:05:32.803Z,50.48
2017-10-02T02:07:35.242Z,50.49
2017-10-02T02:09:37.688Z,50.50
2017-10-02T02:11:40.301Z,50.73
2017-10-02T02:13:42.731Z,50.92
2017-10-02T02:15:45.168Z,51.33
2017-10-02T02:17:47.620Z,51.17
2017-10-02T02:19:50.054Z,51.17
2017-10-02T02:21:52.488Z,50.99
2017-10-02T02:23:55.014Z,50.98
2017-10-02T02:25:57.451Z,50.96
2017-10-02T02:27:59.894Z,50.92
2017-10-02T02:30:02.434Z,51.09
2017-10-02T02:32:04.874Z,51.11
2017-10-02T02:34:07.305Z,51.23
2017-10-02T02:36:09.764Z,51.16
2017-10-02T02:38:12.265Z,51.15
2017-10-02T02:40:14.701Z,51.16
2017-10-02T02:42:17.169Z,51.10
2017-10-02T02:44:19.716Z,51.22
2017-10-02T02:46:22.181Z,51.19
2017-10-02T02:48:24.643Z,51.26
2017-10-02T02:50:27.121Z,51.25
2017-10-02T02:52:29.561Z,51.43
2017-10-02T02:54:32.066Z,51.51
2017-10-02T02:56:34.500Z,51.38
2017-10-02T02:58:36.935Z,51.99
2017-10-02T03:00:39.578Z,51.86
2017-10-02T03:02:42.022Z,51.99
2017-10-02T03:04:44.520Z,52.00
2017-10-02T03:06:47.093Z,51.85
2017-10-02T03:08:49.549Z,52.07
2017-10-02T03:10:51.985Z,52.00
2017-10-02T03:12:54.605Z,51.98
2017-10-02T03:14:57.048Z,52.05
2017-10-02T03:16:59.494Z,52.09
2017-10-02T03:19:01.970Z,52.18
2017-10-02T03:21:04.403Z,52.13
2017-10-02T03:23:06.911Z,52.22
2017-10-02T03:25:09.425Z,52.11
2017-10-02T03:27:11.888Z,52.13
2017-10-02T03:29:14.331Z,52.15
2017-10-02T03:31:16.797Z,52.28
2017-10-02T03:33:19.302Z,52.42
2017-10-02T03:35:21.748Z,52.47
2017-10-02T03:37:24.246Z,52.59
2017-10-02T03:39:26.720Z,52.96
2017-10-02T03:41:29.161Z,53.19
2017-10-02T03:43:31.624Z,53.31
2017-10-02T03:45:34.056Z,53.38
2017-10-02T03:47:36.596Z,53.27
2017-10-02T03:49:39.048Z,53.25
2017-10-02T03:51:41.483Z,53.38
2017-10-02T03:53:43.955Z,53.50
2017-10-02T03:55:46.423Z,53.71
2017-10-02T03:57:48.940Z,53.62
2017-10-02T03:59:51.376Z,53.52
2017-10-02T04:01:53.880Z,53.83
2017-10-02T04:03:56.396Z,53.68
2017-10-02T04:05:58.836Z,53.57
2017-10-02T04:08:01.461Z,53.99
2017-10-02T04:10:03.900Z,54.03
2017-10-02T04:12:06.341Z,54.26
2017-10-02T04:14:08.952Z,54.08
2017-10-02T04:16:11.388Z,54.25
2017-10-02T04:18:13.829Z,54.37
2017-10-02T04:20:16.290Z,54.02
2017-10-02T04:22:18.730Z,53.89
2017-10-02T04:24:21.259Z,54.03
2017-10-02T04:26:23.715Z,54.17
2017-10-02T04:28:26.150Z,54.22
2017-10-02T04:30:28.671Z,54.27
2017-10-02T04:32:31.134Z,54.18
2017-10-02T04:34:33.571Z,54.46
2017-10-02T04:36:36.001Z,54.63
2017-10-02T04:38:38.595Z,54.33
2017-10-02T04:40:41.055Z,54.54
2017-10-02T04:42:43.495Z,54.82
2017-10-02T04:44:45.959Z,54.77
2017-10-02T04:46:48.409Z,55.09
2017-10-02T04:48:50.917Z,54.80
2017-10-02T04:50:53.385Z,54.80
2017-10-02T04:52:55.816Z,54.91
2017-10-02T04:54:58.263Z,54.82
2017-10-02T04:57:00.763Z,54.67
2017-10-02T04:59:03.216Z,54.62
2017-10-02T05:01:05.648Z,54.51
2017-10-02T05:03:08.113Z,54.63
2017-10-02T05:05:10.555Z,54.97
2017-10-02T05:07:12.993Z,54.79
2017-10-02T05:09:15.504Z,55.08
2017-10-02T05:11:17.942Z,54.96
2017-10-02T05:13:20.376Z,55.21
2017-10-02T05:15:23.117Z,54.80
2017-10-02T05:17:25.570Z,54.88
2017-10-02T05:19:28.041Z,54.84
2017-10-02T05:21:30.532Z,54.86
2017-10-02T05:23:32.998Z,55.20
2017-10-02T05:25:35.456Z,54.95
2017-10-02T05:27:37.918Z,55.09
2017-10-02T05:29:40.370Z,54.81
2017-10-02T05:31:42.822Z,54.85
2017-10-02T05:33:45.302Z,55.02
2017-10-02T05:35:47.915Z,55.05
2017-10-02T05:37:50.363Z,54.84
2017-10-02T05:39:52.825Z,55.11
2017-10-02T05:41:55.264Z,55.50
2017-10-02T05:43:57.709Z,55.33
2017-10-02T05:46:00.272Z,55.03
2017-10-02T05:48:02.709Z,55.66
2017-10-02T05:50:05.150Z,55.37
2017-10-02T05:52:07.687Z,55.34
2017-10-02T05:54:10.220Z,55.46
2017-10-02T05:56:12.780Z,55.33
2017-10-02T05:58:15.302Z,55.25
2017-10-02T06:00:17.751Z,55.09
2017-10-02T06:02:20.200Z,55.33
2017-10-02T06:04:22.664Z,55.36
2017-10-02T06:06:25.128Z,55.39
2017-10-02T06:08:27.708Z,55.23
2017-10-02T06:10:30.191Z,55.25
2017-10-02T06:12:32.650Z,55.32
2017-10-02T06:14:35.182Z,55.56
2017-10-02T06:16:37.733Z,55.46
2017-10-02T06:18:40.338Z,54.99
2017-10-02T06:20:42.896Z,55.06
2017-10-02T06:22:45.365Z,55.12
2017-10-02T06:24:47.859Z,54.82
2017-10-02T06:26:50.305Z,54.94
2017-10-02T06:28:52.801Z,54.80
2017-10-02T06:30:55.460Z,54.52
2017-10-02T06:32:57.927Z,54.50
2017-10-02T06:35:00.480Z,54.40
2017-10-02T06:37:02.945Z,54.35
2017-10-02T06:39:05.384Z,54.26
2017-10-02T06:41:07.908Z,54.01
2017-10-02T06:43:10.344Z,54.02
2017-10-02T06:45:12.780Z,53.98
2017-10-02T06:47:15.247Z,53.89
2017-10-02T06:49:17.776Z,53.89
2017-10-02T06:51:20.209Z,53.80
2017-10-02T06:53:22.672Z,53.79
2017-10-02T06:55:25.191Z,53.71
2017-10-02T06:57:27.632Z,53.65
2017-10-02T06:59:30.087Z,53.67
2017-10-02T07:01:32.601Z,53.63
2017-10-02T07:03:35.037Z,53.56
2017-10-02T07:05:37.508Z,53.52
2017-10-02T07:07:39.957Z,53.47
2017-10-02T07:09:42.426Z,53.46
2017-10-02T07:11:44.897Z,53.46
2017-10-02T07:13:47.335Z,53.36
2017-10-02T07:15:49.781Z,53.30
2017-10-02T07:17:52.373Z,53.34
2017-10-02T07:19:54.829Z,53.28
2017-10-02T07:21:57.274Z,53.22
2017-10-02T07:23:59.752Z,53.22
2017-10-02T07:26:02.282Z,53.18
2017-10-02T07:28:04.708Z,53.12
2017-10-02T07:30:07.167Z,53.07
2017-10-02T07:32:09.644Z,53.14
2017-10-02T07:34:12.083Z,53.12
2017-10-02T07:36:14.599Z,53.06
2017-10-02T07:38:17.118Z,52.98
2017-10-02T07:40:19.615Z,52.92
2017-10-02T07:42:23.011Z,52.91
2017-10-02T07:44:25.492Z,52.87
2017-10-02T07:46:27.962Z,52.86
2017-10-02T07:48:30.444Z,52.86
2017-10-02T07:50:32.891Z,52.73
2017-10-02T07:52:35.338Z,52.85
2017-10-02T07:54:37.826Z,52.97
2017-10-02T07:56:40.277Z,53.07
2017-10-02T07:58:42.716Z,53.07
2017-10-02T08:00:45.220Z,53.06
2017-10-02T08:02:47.722Z,52.94
2017-10-02T08:04:50.264Z,52.96
2017-10-02T08:06:52.781Z,53.47
2017-10-02T08:08:55.220Z,53.25
2017-10-02T08:10:57.662Z,53.12
2017-10-02T08:13:00.619Z,53.04
2017-10-02T08:15:03.164Z,53.06
2017-10-02T08:17:05.660Z,52.94
2017-10-02T08:19:08.205Z,52.90
2017-10-02T08:21:10.645Z,52.89
2017-10-02T08:23:13.082Z,53.02
2017-10-02T08:25:15.571Z,52.85
2017-10-02T08:27:18.021Z,52.95
2017-10-02T08:29:20.456Z,53.03
2017-10-02T08:31:23.021Z,52.84
2017-10-02T08:33:25.484Z,52.72
2017-10-02T08:35:27.928Z,52.94
2017-10-02T08:37:30.415Z,52.75
2017-10-02T08:39:32.861Z,52.77
2017-10-02T08:41:35.309Z,52.66
2017-10-02T08:43:37.764Z,52.59
2017-10-02T08:45:40.220Z,52.59
2017-10-02T08:47:42.669Z,52.63
2017-10-02T08:49:45.132Z,52.60
2017-10-02T08:51:47.573Z,52.62
2017-10-02T08:53:50.093Z,52.56
2017-10-02T08:55:52.561Z,52.53
2017-10-02T08:57:55.029Z,52.63
2017-10-02T08:59:57.488Z,52.56
2017-10-02T09:02:00.076Z,52.59
2017-10-02T09:04:02.545Z,52.62
2017-10-02T09:06:04.997Z,52.51
2017-10-02T09:08:07.459Z,52.54
2017-10-02T09:10:09.893Z,52.47
2017-10-02T09:12:12.331Z,52.41
2017-10-02T09:14:14.791Z,52.46
2017-10-02T09:16:17.271Z,52.27
2017-10-02T09:18:19.700Z,52.19
2017-10-02T09:20:22.300Z,52.16
2017-10-02T09:22:24.749Z,52.28
2017-10-02T09:24:27.240Z,52.22
2017-10-02T09:26:29.705Z,52.20
2017-10-02T09:28:32.360Z,52.11
2017-10-02T09:30:34.852Z,52.17
2017-10-02T09:32:37.317Z,52.04
2017-10-02T09:34:39.807Z,52.33
2017-10-02T09:36:42.247Z,52.30
2017-10-02T09:38:44.725Z,52.09
2017-10-02T09:40:47.184Z,52.01
2017-10-02T09:42:49.614Z,52.08
2017-10-02T09:44:52.073Z,52.08
2017-10-02T09:46:54.521Z,51.96
2017-10-02T09:48:56.964Z,51.91
2017-10-02T09:50:59.424Z,51.87
2017-10-02T09:53:02.824Z,51.78
2017-10-02T09:55:05.333Z,51.80
2017-10-02T09:57:07.896Z,51.84
2017-10-02T09:59:10.356Z,51.67
2017-10-02T10:01:12.796Z,51.75
2017-10-02T10:03:15.261Z,51.82
2017-10-02T10:05:17.769Z,51.72
2017-10-02T10:07:20.212Z,51.70
2017-10-02T10:09:22.674Z,51.73
2017-10-02T10:11:25.192Z,51.77
2017-10-02T10:13:27.623Z,51.84
2017-10-02T10:15:30.153Z,51.91
2017-10-02T10:17:32.610Z,51.55
2017-10-02T10:19:35.052Z,51.51
2017-10-02T10:21:37.656Z,51.54
2017-10-02T10:23:40.110Z,51.53
2017-10-02T10:25:42.572Z,51.63
2017-10-02T10:27:45.037Z,51.63
2017-10-02T10:29:47.505Z,51.73
2017-10-02T10:31:49.965Z,51.82
2017-10-02T10:33:52.432Z,52.05
2017-10-02T10:35:54.868Z,51.98
2017-10-02T10:37:57.305Z,51.89
2017-10-02T10:39:59.887Z,51.88
2017-10-02T10:42:02.365Z,51.80
2017-10-02T10:44:04.886Z,51.77
2017-10-02T10:46:07.365Z,51.82
2017-10-02T10:48:09.834Z,51.77
2017-10-02T10:50:12.320Z,51.84
2017-10-02T10:52:14.784Z,51.81
2017-10-02T10:54:17.230Z,51.75
2017-10-02T10:56:19.738Z,51.76
2017-10-02T10:58:22.201Z,51.85
2017-10-02T11:00:24.659Z,51.86
2017-10-02T11:02:27.104Z,51.81
2017-10-02T11:04:29.570Z,51.95
2017-10-02T11:06:31.996Z,51.99
2017-10-02T11:08:34.460Z,52.08
2017-10-02T11:10:36.913Z,52.00
2017-10-02T11:12:39.368Z,51.91
2017-10-02T11:14:41.801Z,51.89
2017-10-02T11:16:44.273Z,51.94
2017-10-02T11:18:46.712Z,51.92
2017-10-02T11:20:49.190Z,51.88
2017-10-02T11:22:51.741Z,51.82
2017-10-02T11:24:54.182Z,51.79
2017-10-02T11:26:56.616Z,51.86
2017-10-02T11:28:59.092Z,52.08
2017-10-02T11:31:01.539Z,52.07
2017-10-02T11:33:03.984Z,52.13
2017-10-02T11:35:06.549Z,52.18
2017-10-02T11:37:08.993Z,52.27
2017-10-02T11:39:11.512Z,52.32
2017-10-02T11:41:14.088Z,52.56
2017-10-02T11:43:16.579Z,52.47
2017-10-02T11:45:19.029Z,52.42
2017-10-02T11:47:21.529Z,52.75
2017-10-02T11:49:24.056Z,52.82
2017-10-02T11:51:26.498Z,52.78
2017-10-02T11:53:28.947Z,52.76
2017-10-02T11:55:31.399Z,52.83
2017-10-02T11:57:33.915Z,52.80
2017-10-02T11:59:36.379Z,52.78
2017-10-02T12:01:38.819Z,52.77
2017-10-02T12:03:41.248Z,52.77
2017-10-02T12:05:43.768Z,52.74
2017-10-02T12:07:46.229Z,52.68
2017-10-02T12:09:48.668Z,52.69
2017-10-02T12:11:51.121Z,52.73
2017-10-02T12:13:53.564Z,52.83
2017-10-02T12:15:56.016Z,53.91
2017-10-02T12:17:58.477Z,54.56
2017-10-02T12:20:00.916Z,54.74
2017-10-02T12:22:03.366Z,54.51
2017-10-02T12:24:06.310Z,54.00
2017-10-02T12:26:08.790Z,53.93
2017-10-02T12:28:11.264Z,53.57
2017-10-02T12:30:13.745Z,53.39
2017-10-02T12:32:16.309Z,53.62
2017-10-02T12:34:19.700Z,53.53
2017-10-02T12:36:22.151Z,53.35
2017-10-02T12:38:24.610Z,53.25
2017-10-02T12:40:27.041Z,53.54
2017-10-02T12:42:29.516Z,53.54
2017-10-02T12:44:31.975Z,53.48
2017-10-02T12:46:34.412Z,53.40
2017-10-02T12:48:36.885Z,53.34
2017-10-02T12:50:39.413Z,53.37
2017-10-02T12:52:41.857Z,53.27
2017-10-02T12:54:44.348Z,53.30
2017-10-02T12:56:46.796Z,53.37
2017-10-02T12:58:49.232Z,53.32
2017-10-02T13:00:51.694Z,53.28
2017-10-02T13:02:54.130Z,53.27
2017-10-02T13:04:56.594Z,53.40
2017-10-02T13:06:59.116Z,53.48
2017-10-02T13:09:01.554Z,53.44
2017-10-02T13:11:03.996Z,53.40
2017-10-02T13:13:06.463Z,53.42
2017-10-02T13:15:08.908Z,53.47
2017-10-02T13:17:11.340Z,53.50
2017-10-02T13:19:13.836Z,53.48
2017-10-02T13:21:16.284Z,53.46
2017-10-02T13:23:18.835Z,53.47
2017-10-02T13:25:21.373Z,53.50
2017-10-02T13:27:24.828Z,53.59
2017-10-02T13:29:27.286Z,53.59
2017-10-02T13:31:29.820Z,53.71
2017-10-02T13:33:32.355Z,53.96
2017-10-02T13:35:34.804Z,53.97
2017-10-02T13:37:37.272Z,53.76
2017-10-02T13:39:39.799Z,53.69
2017-10-02T13:41:42.250Z,53.85
2017-10-02T13:43:44.716Z,54.00
2017-10-02T13:45:48.108Z,53.73
2017-10-02T13:47:50.547Z,53.65
2017-10-02T13:49:53.001Z,53.70
2017-10-02T13:51:55.555Z,53.72
2017-10-02T13:53:57.998Z,53.57
2017-10-02T13:56:00.520Z,53.64
2017-10-02T13:58:02.975Z,54.21
2017-10-02T14:00:05.445Z,53.75
2017-10-02T14:02:07.956Z,53.84
2017-10-02T14:04:10.402Z,53.99
2017-10-02T14:06:13.845Z,54.07
2017-10-02T14:08:16.303Z,54.04
2017-10-02T14:10:18.741Z,53.99
2017-10-02T14:12:21.184Z,53.94
2017-10-02T14:14:23.709Z,54.21
2017-10-02T14:16:26.238Z,54.11
2017-10-02T14:18:28.684Z,54.50
2017-10-02T14:20:31.166Z,54.59
2017-10-02T14:22:33.603Z,54.29
2017-10-02T14:24:36.066Z,54.56
2017-10-02T14:26:38.773Z,54.22
2017-10-02T14:28:41.321Z,54.38
2017-10-02T14:30:43.814Z,54.56
2017-10-02T14:32:46.385Z,54.33
2017-10-02T14:34:48.856Z,54.23
2017-10-02T14:36:51.301Z,54.06
2017-10-02T14:38:53.794Z,53.99
2017-10-02T14:40:57.184Z,53.93
2017-10-02T14:42:59.640Z,53.93
2017-10-02T14:45:02.103Z,53.98
2017-10-02T14:47:04.663Z,53.80
2017-10-02T14:49:07.160Z,53.65
2017-10-02T14:51:09.629Z,53.95
2017-10-02T14:53:12.108Z,53.87
2017-10-02T14:55:14.548Z,53.84
2017-10-02T14:57:17.051Z,53.75
2017-10-02T14:59:19.502Z,53.81
2017-10-02T15:01:22.020Z,53.91
2017-10-02T15:03:24.501Z,53.78
2017-10-02T15:05:26.949Z,53.77
2017-10-02T15:07:29.464Z,53.73
2017-10-02T15:09:31.947Z,53.70
2017-10-02T15:11:34.400Z,53.75
2017-10-02T15:13:36.934Z,53.67
2017-10-02T15:15:39.408Z,53.59
2017-10-02T15:17:41.985Z,53.64
2017-10-02T15:19:44.425Z,53.87
2017-10-02T15:21:46.910Z,53.80
2017-10-02T15:23:49.354Z,53.77
2017-10-02T15:25:51.815Z,53.69
2017-10-02T15:27:54.431Z,53.69
2017-10-02T15:29:56.890Z,53.64
2017-10-02T15:31:59.336Z,53.66
2017-10-02T15:34:01.859Z,53.67
2017-10-02T15:36:04.308Z,53.77
2017-10-02T15:38:06.745Z,53.73
2017-10-02T15:40:09.239Z,53.72
2017-10-02T15:42:11.809Z,53.71
2017-10-02T15:44:14.257Z,53.72
2017-10-02T15:46:16.728Z,53.91
2017-10-02T15:48:19.165Z,53.94
2017-10-02T15:50:21.616Z,54.01
2017-10-02T15:52:24.168Z,53.97
2017-10-02T15:54:26.694Z,54.08
2017-10-02T15:56:29.211Z,54.09
2017-10-02T15:58:31.790Z,54.10
2017-10-02T16:00:34.261Z,54.11
2017-10-02T16:02:36.704Z,54.10
2017-10-02T16:04:39.203Z,54.13
2017-10-02T16:06:41.649Z,54.13
2017-10-02T16:08:44.115Z,54.12
2017-10-02T16:10:46.602Z,54.14
2017-10-02T16:12:49.058Z,54.20
2017-10-02T16:14:51.508Z,54.17
2017-10-02T16:16:54.002Z,54.13
2017-10-02T16:18:56.444Z,54.14
2017-10-02T16:20:58.886Z,54.18
2017-10-02T16:23:01.480Z,54.15
2017-10-02T16:25:03.921Z,54.12
2017-10-02T16:27:07.340Z,54.16
2017-10-02T16:29:10.054Z,54.18
2017-10-02T16:31:12.495Z,54.22
2017-10-02T16:33:14.939Z,54.27
2017-10-02T16:35:17.400Z,54.28
2017-10-02T16:37:19.828Z,54.27
2017-10-02T16:39:22.308Z,54.30
2017-10-02T16:41:24.755Z,54.33
2017-10-02T16:43:27.228Z,54.24
2017-10-02T16:45:29.714Z,54.29
2017-10-02T16:47:32.181Z,54.33
2017-10-02T16:49:34.647Z,54.33
2017-10-02T16:51:37.119Z,54.33
2017-10-02T16:53:39.593Z,54.36
2017-10-02T16:55:42.066Z,54.38
2017-10-02T16:57:44.601Z,54.35
2017-10-02T16:59:47.072Z,54.36
2017-10-02T17:01:49.521Z,54.40
2017-10-02T17:03:51.956Z,54.41
2017-10-02T17:05:54.611Z,54.45
2017-10-02T17:07:57.159Z,54.48
2017-10-02T17:09:59.596Z,54.52
2017-10-02T17:12:02.116Z,54.54
2017-10-02T17:14:04.564Z,54.58
2017-10-02T17:16:06.995Z,54.58
2017-10-02T17:18:09.460Z,54.56
2017-10-02T17:20:11.909Z,54.59
2017-10-02T17:22:14.380Z,54.60
2017-10-02T17:24:16.850Z,54.58
2017-10-02T17:26:19.385Z,54.59
2017-10-02T17:28:21.852Z,54.63
2017-10-02T17:30:24.496Z,54.64
2017-10-02T17:32:26.938Z,54.61
2017-10-02T17:34:29.420Z,54.65
2017-10-02T17:36:31.888Z,54.68
2017-10-02T17:38:34.328Z,54.71
2017-10-02T17:40:36.765Z,54.65
2017-10-02T17:42:39.293Z,54.65
2017-10-02T17:44:41.870Z,54.68
2017-10-02T17:46:44.308Z,54.68
2017-10-02T17:48:46.848Z,54.67
2017-10-02T17:50:49.307Z,54.65
2017-10-02T17:52:51.755Z,54.67
2017-10-02T17:54:54.320Z,54.65
2017-10-02T17:56:56.804Z,54.66
2017-10-02T17:58:59.244Z,54.65
2017-10-02T18:01:01.727Z,54.68
2017-10-02T18:03:04.160Z,54.68
2017-10-02T18:05:06.600Z,54.67
2017-10-02T18:07:09.092Z,54.64
2017-10-02T18:09:11.563Z,54.62
2017-10-02T18:11:14.003Z,54.64
2017-10-02T18:13:16.571Z,54.61
2017-10-02T18:15:19.015Z,54.64
2017-10-02T18:17:21.453Z,54.59
2017-10-02T18:19:23.916Z,54.56
2017-10-02T18:21:26.356Z,54.58
2017-10-02T18:23:28.892Z,54.61
2017-10-02T18:25:31.368Z,54.57
2017-10-02T18:27:33.804Z,54.58
2017-10-02T18:29:36.240Z,54.56
2017-10-02T18:31:38.875Z,54.55
2017-10-02T18:33:41.325Z,54.58
2017-10-02T18:35:43.777Z,54.54
2017-10-02T18:37:46.251Z,54.52
2017-10-02T18:39:48.766Z,54.57
2017-10-02T18:41:51.705Z,54.58
2017-10-02T18:43:54.581Z,54.57
2017-10-02T18:45:57.724Z,54.58
2017-10-02T18:48:01.296Z,54.53
2017-10-02T18:50:04.999Z,54.54
2017-10-02T18:52:07.840Z,54.54
2017-10-02T18:54:10.340Z,54.55
2017-10-02T18:56:12.802Z,54.57
2017-10-02T18:58:15.235Z,54.57
2017-10-02T19:00:18.029Z,54.56
2017-10-02T19:02:20.596Z,54.56
2017-10-02T19:04:23.033Z,54.55
2017-10-02T19:06:25.472Z,54.53
2017-10-02T19:08:27.950Z,54.55
2017-10-02T19:10:30.412Z,54.53
2017-10-02T19:12:32.855Z,54.54
2017-10-02T19:14:35.372Z,54.53
2017-10-02T19:16:37.848Z,54.51
2017-10-02T19:18:40.599Z,54.52
2017-10-02T19:20:43.189Z,54.50
2017-10-02T19:22:45.667Z,54.44
2017-10-02T19:24:48.120Z,54.47
2017-10-02T19:26:50.595Z,54.53
2017-10-02T19:28:53.032Z,54.50
2017-10-02T19:30:55.489Z,54.51
2017-10-02T19:32:58.414Z,54.49
2017-10-02T19:35:00.857Z,54.47
2017-10-02T19:37:03.311Z,54.48
2017-10-02T19:39:05.838Z,54.44
2017-10-02T19:41:08.285Z,54.45
2017-10-02T19:43:10.781Z,54.45
2017-10-02T19:45:13.279Z,54.48
2017-10-02T19:47:15.808Z,54.48
2017-10-02T19:49:18.259Z,54.47
2017-10-02T19:51:20.732Z,54.45
2017-10-02T19:53:23.185Z,54.39
2017-10-02T19:55:25.685Z,54.39
2017-10-02T19:57:28.152Z,54.38
2017-10-02T19:59:30.621Z,54.40
2017-10-02T20:01:33.068Z,54.41
2017-10-02T20:03:35.552Z,54.39
2017-10-02T20:05:37.998Z,54.40
2017-10-02T20:07:40.469Z,54.38
2017-10-02T20:09:42.939Z,54.38
2017-10-02T20:11:45.367Z,54.43
2017-10-02T20:13:47.826Z,54.43
2017-10-02T20:15:50.304Z,54.38
2017-10-02T20:17:52.745Z,54.36
2017-10-02T20:19:55.176Z,54.38
2017-10-02T20:21:57.646Z,54.42
2017-10-02T20:24:00.080Z,54.39
2017-10-02T20:26:02.545Z,54.40
2017-10-02T20:28:05.017Z,54.42
2017-10-02T20:30:07.477Z,54.42
2017-10-02T20:32:09.937Z,54.43
2017-10-02T20:34:12.514Z,54.47
2017-10-02T20:36:14.987Z,54.44
2017-10-02T20:38:17.426Z,54.43
2017-10-02T20:40:19.897Z,54.40
2017-10-02T20:42:22.376Z,54.40
2017-10-02T20:44:24.837Z,54.39
2017-10-02T20:46:27.343Z,54.40
2017-10-02T20:48:29.784Z,54.41
2017-10-02T20:50:32.227Z,54.35
2017-10-02T20:52:34.683Z,54.38
2017-10-02T20:54:37.145Z,54.40
2017-10-02T20:56:39.588Z,54.39
2017-10-02T20:58:42.056Z,54.42
2017-10-02T21:00:44.552Z,54.43
2017-10-02T21:02:47.096Z,54.40
2017-10-02T21:04:49.568Z,54.37
2017-10-02T21:06:52.016Z,54.41
2017-10-02T21:08:54.459Z,54.43
2017-10-02T21:10:56.927Z,54.42
2017-10-02T21:12:59.371Z,54.43
2017-10-02T21:15:01.812Z,54.42
2017-10-02T21:17:04.316Z,54.41
2017-10-02T21:19:06.754Z,54.43
2017-10-02T21:21:09.222Z,54.41
2017-10-02T21:23:11.730Z,54.40
2017-10-02T21:25:14.177Z,54.39
2017-10-02T21:27:16.616Z,54.40
2017-10-02T21:29:19.100Z,54.46
2017-10-02T21:31:21.536Z,54.42
2017-10-02T21:33:23.973Z,54.44
2017-10-02T21:35:26.664Z,54.44
2017-10-02T21:37:29.103Z,54.44
2017-10-02T21:39:31.539Z,54.46
2017-10-02T21:41:34.244Z,54.43
2017-10-02T21:43:36.687Z,54.40
2017-10-02T21:45:39.130Z,54.37
2017-10-02T21:47:41.605Z,54.39
2017-10-02T21:49:44.054Z,54.38
2017-10-02T21:51:46.522Z,54.36
2017-10-02T21:53:48.993Z,54.33
2017-10-02T21:55:51.424Z,54.31
2017-10-02T21:57:53.871Z,54.36
2017-10-02T21:59:56.367Z,54.35
2017-10-02T22:01:58.849Z,54.37
2017-10-02T22:04:01.289Z,54.37
2017-10-02T22:06:03.769Z,54.39
2017-10-02T22:08:06.209Z,54.40
2017-10-02T22:10:08.671Z,54.39
2017-10-02T22:12:11.141Z,54.37
2017-10-02T22:14:13.598Z,54.39
2017-10-02T22:16:16.145Z,54.41
2017-10-02T22:18:18.608Z,54.42
2017-10-02T22:20:21.050Z,54.42
2017-10-02T22:22:23.496Z,54.44
2017-10-02T22:24:25.997Z,54.46
2017-10-02T22:26:28.442Z,54.42
2017-10-02T22:28:30.958Z,54.42
2017-10-02T22:30:33.594Z,54.40
2017-10-02T22:32:36.031Z,54.37
2017-10-02T22:34:38.479Z,54.42
2017-10-02T22:36:41.076Z,54.42
2017-10-02T22:38:43.703Z,54.43
2017-10-02T22:40:46.156Z,54.41
2017-10-02T22:42:48.636Z,54.42
2017-10-02T22:44:51.077Z,54.41
2017-10-02T22:46:53.524Z,54.39
2017-10-02T22:48:55.975Z,54.39
2017-10-02T22:50:58.442Z,54.38
2017-10-02T22:53:00.883Z,54.41
2017-10-02T22:55:03.393Z,54.39
2017-10-02T22:57:06.833Z,54.38
2017-10-02T22:59:09.280Z,54.38
2017-10-02T23:01:11.764Z,54.39
2017-10-02T23:03:14.211Z,54.41
2017-10-02T23:05:16.657Z,54.39
2017-10-02T23:07:19.143Z,54.40
2017-10-02T23:09:21.610Z,54.42
2017-10-02T23:11:24.077Z,54.38
2017-10-02T23:13:26.556Z,54.38
2017-10-02T23:15:29.087Z,54.40
2017-10-02T23:17:31.560Z,54.38
2017-10-02T23:19:34.032Z,54.35
2017-10-02T23:21:36.512Z,54.34
2017-10-02T23:23:38.952Z,54.36
2017-10-02T23:25:42.118Z,54.35
2017-10-02T23:27:44.627Z,54.37
2017-10-02T23:29:47.068Z,54.37
2017-10-02T23:31:49.553Z,54.41
2017-10-02T23:33:51.998Z,54.37
2017-10-02T23:35:54.428Z,54.45
2017-10-02T23:37:56.980Z,54.47
2017-10-02T23:39:59.416Z,54.47
2017-10-02T23:42:01.848Z,54.42
2017-10-02T23:44:04.312Z,54.38
2017-10-02T23:46:06.757Z,54.38
2017-10-02T23:48:09.236Z,54.39
2017-10-02T23:50:11.704Z,54.41
2017-10-02T23:52:14.136Z,54.39
2017-10-02T23:54:16.560Z,54.36
2017-10-02T23:56:19.105Z,54.38
2017-10-02T23:58:21.562Z,54.38
